Rawson, Argentina
Current Conditions -  °F | °C
As of 5:00 PM on Friday 31 Oct 2014 (Local Time) from SADF Reporting Station
Scattered Clouds Scattered Clouds  
Wind Chill: 22°   Ceiling: Unl
Heat Index: 22°   Visibility: 6mi
Dew Point: 12°   Wind: 9mph
Humidity: 53%   Direction: 90°E
Pressure: 29.94"   Gusts: NA
Location:  34.6°S, 60.07°W
Report Text: SADF 312000Z 09008KT 9999 SCT025 SCT20022/12 Q1014
Loading
Personal Weather Stations






























Interactive Weather Map
Tropical Storm Tracking
New forecast layout! Learn more

10-Day Weather Forecast

Advertisements
Track Severe Weather on mobile